HomeShort term forecast

Short term forecast

Graphical weather forecast for the next 48 hours for Montreal:
Short term forecast
This weather forecast is automatically refreshed every 3 hours.

Hourly Experimental Forecast for the next 48 hours

Overall summary: Breezy until this afternoon and mostly cloudy throughout the day.

 Date & Hour   Temp   Feel   Baro   Hum   Speed & Bearing   Precipitation   Visibility   Cloud cover   Conditions 
 20/01/2018 - 10:00  1.8°C  -4.3°C  1002.2 hPa  79%  32.1 km/h   --  16.1km  64%  Breezy and Mostly Cloudy 
 20/01/2018 - 11:00  1.3°C  -5.1°C  1002.5 hPa  88%  33.5 km/h   0.05 mm/h  16.1km  72%  Breezy and Mostly Cloudy 
 20/01/2018 - 12:00  1.2°C  -5.2°C  1002.7 hPa  93%  33.4 km/h   0.03 mm/h  16.1km  85%  Breezy and Mostly Cloudy 
 20/01/2018 - 13:00  1.5°C  -4.7°C  1003.1 hPa  93%  32.3 km/h   0.02 mm/h  16.1km  93%  Breezy and Mostly Cloudy 
 20/01/2018 - 14:00  2.0°C  -4.0°C  1004.1 hPa  92%  31.2 km/h   0.01 mm/h  16.1km  92%  Breezy and Mostly Cloudy 
 20/01/2018 - 15:00  2.3°C  -3.4°C  1005.2 hPa  90%  30.2 km/h   0.01 mm/h  16.1km  89%  Breezy and Mostly Cloudy 
 20/01/2018 - 16:00  2.8°C  -2.7°C  1006.4 hPa  86%  29.2 km/h   0.01 mm/h  16.1km  85%  Breezy and Mostly Cloudy 
 20/01/2018 - 17:00  3.2°C  -1.9°C  1007.5 hPa  85%  26.0 km/h   0.02 mm/h  16.1km  82%  Mostly Cloudy 
 20/01/2018 - 18:00  3.4°C  -1.6°C  1008.5 hPa  84%  25.0 km/h   0.02 mm/h  16.1km  77%  Mostly Cloudy 
 20/01/2018 - 19:00  2.9°C  -2.0°C  1009.7 hPa  84%  23.9 km/h   0.03 mm/h  16.1km  73%  Mostly Cloudy 
 20/01/2018 - 20:00  1.9°C  -2.9°C  1011.0 hPa  82%  20.5 km/h   0.02 mm/h  16.1km  66%  Mostly Cloudy 
 20/01/2018 - 21:00  0.6°C  -4.0°C  1012.4 hPa  79%  17.3 km/h   0.02 mm/h  16.1km  57%  Partly Cloudy 
 20/01/2018 - 22:00  -0.3°C  -4.8°C  1013.6 hPa  77%  15.2 km/h   0.02 mm/h  16.1km  52%  Partly Cloudy 
 20/01/2018 - 23:00  -1.1°C  -5.3°C  1014.4 hPa  76%  12.7 km/h   0.01 mm/h  16.1km  51%  Partly Cloudy 
 21/01/2018 - 00:00  -1.9°C  -5.6°C  1015.1 hPa  76%  10.4 km/h   0.01 mm/h  16.1km  52%  Partly Cloudy 
 21/01/2018 - 01:00  -2.6°C  -5.9°C  1015.8 hPa  76%  8.4 km/h   0.01 mm/h  16.1km  53%  Partly Cloudy 
 21/01/2018 - 02:00  -3.1°C  -5.9°C  1016.7 hPa  76%  6.8 km/h   0.02 mm/h  16.1km  52%  Partly Cloudy 
 21/01/2018 - 03:00  -3.5°C  -5.9°C  1017.7 hPa  78%  5.7 km/h   0.03 mm/h  16.1km  50%  Partly Cloudy 
 21/01/2018 - 04:00  -4.0°C  -6.0°C  1018.5 hPa  79%  4.8 km/h   0.04 mm/h  16.1km  53%  Partly Cloudy 
 21/01/2018 - 05:00  -4.7°C  -4.7°C  1019.1 hPa  81%  4.3 km/h   0.04 mm/h  16.1km  65%  Mostly Cloudy 
 21/01/2018 - 06:00  -5.4°C  -5.4°C  1019.6 hPa  82%  4.2 km/h   0.04 mm/h  10.9km  82%  Mostly Cloudy 
 21/01/2018 - 07:00  -5.8°C  -5.8°C  1020.1 hPa  83%  4.2 km/h   0.03 mm/h  7.1km  92%  Mostly Cloudy 
 21/01/2018 - 08:00  -5.8°C  -5.8°C  1020.8 hPa  82%  4.3 km/h   0.03 mm/h  10.9km  89%  Mostly Cloudy 
 21/01/2018 - 09:00  -5.5°C  -5.5°C  1021.6 hPa  81%  4.4 km/h   0.03 mm/h  16.1km  81%  Mostly Cloudy 
 21/01/2018 - 10:00  -5.1°C  -7.3°C  1022.1 hPa  78%  4.9 km/h   0.03 mm/h  16.1km  76%  Mostly Cloudy 
 21/01/2018 - 11:00  -4.7°C  -7.4°C  1022.1 hPa  78%  5.8 km/h   0.03 mm/h  16.1km  79%  Mostly Cloudy 
 21/01/2018 - 12:00  -4.0°C  -7.0°C  1021.7 hPa  75%  6.9 km/h   0.04 mm/h  16.1km  84%  Mostly Cloudy 
 21/01/2018 - 13:00  -3.4°C  -6.5°C  1021.5 hPa  73%  7.5 km/h   0.04 mm/h  16.1km  89%  Mostly Cloudy 
 21/01/2018 - 14:00  -2.9°C  -5.8°C  1021.4 hPa  72%  7.2 km/h   0.03 mm/h  16.1km  90%  Mostly Cloudy 
 21/01/2018 - 15:00  -3.0°C  -5.5°C  1021.5 hPa  75%  6.3 km/h   0.02 mm/h  16.1km  91%  Mostly Cloudy 
 21/01/2018 - 16:00  -3.3°C  -5.7°C  1021.6 hPa  78%  5.7 km/h   0.01 mm/h  16.1km  93%  Mostly Cloudy 
 21/01/2018 - 17:00  -4.1°C  -6.6°C  1022.2 hPa  81%  5.9 km/h   0.01 mm/h  16.1km  95%  Overcast 
 21/01/2018 - 18:00  -4.6°C  -7.5°C  1022.9 hPa  83%  6.3 km/h   0.01 mm/h  7.5km  97%  Overcast 
 21/01/2018 - 19:00  -5.1°C  -8.2°C  1023.5 hPa  84%  6.8 km/h   0.02 mm/h  0.3km  99%  Foggy 
 21/01/2018 - 20:00  -5.1°C  -8.2°C  1023.8 hPa  84%  6.7 km/h   0.02 mm/h  0.2km  99%  Foggy 
 21/01/2018 - 21:00  -4.8°C  -7.8°C  1024.1 hPa  83%  6.6 km/h   0.03 mm/h  0.1km  100%  Foggy 
 21/01/2018 - 22:00  -4.7°C  -7.9°C  1024.3 hPa  82%  7.0 km/h   0.03 mm/h  0.2km  100%  Foggy 
 21/01/2018 - 23:00  -4.8°C  -8.5°C  1024.7 hPa  81%  8.4 km/h   0.03 mm/h  0.0km  100%  Foggy 
 22/01/2018 - 00:00  -5.0°C  -9.3°C  1025.1 hPa  80%  10.3 km/h   0.03 mm/h  0.0km  100%  Foggy 
 22/01/2018 - 01:00  -5.3°C  -10.3°C  1025.5 hPa  79%  12.1 km/h   0.04 mm/h  0.8km  100%  Foggy 
 22/01/2018 - 02:00  -5.8°C  -11.3°C  1025.9 hPa  79%  13.7 km/h   0.04 mm/h  4.5km  100%  Overcast 
 22/01/2018 - 03:00  -6.6°C  -12.5°C  1026.3 hPa  79%  15.2 km/h   0.05 mm/h  9.8km  100%  Overcast 
 22/01/2018 - 04:00  -7.4°C  -13.8°C  1026.8 hPa  80%  16.5 km/h   0.06 mm/h  14.5km  100%  Overcast 
 22/01/2018 - 05:00  -8.3°C  -15.2°C  1027.6 hPa  79%  17.4 km/h   0.06 mm/h  16.1km  96%  Overcast 
 22/01/2018 - 06:00  -9.4°C  -16.6°C  1028.5 hPa  78%  18.1 km/h   0.05 mm/h  16.1km  91%  Mostly Cloudy 
 22/01/2018 - 07:00  -10.1°C  -17.8°C  1029.3 hPa  77%  18.8 km/h   0.04 mm/h  16.1km  86%  Mostly Cloudy 
 22/01/2018 - 08:00  -10.6°C  -18.4°C  1030.0 hPa  77%  19.4 km/h   0.03 mm/h  16.1km  79%  Mostly Cloudy 
 22/01/2018 - 09:00  -10.7°C  -18.7°C  1030.4 hPa  78%  20.1 km/h   0.02 mm/h  16.1km  72%  Mostly Cloudy 
Test

 

Past weather and reports

Past weatherFind in this section the past weather conditions, weather archive, graphics, reports and statistics.

Current conditions

Current weather condition for MontrealAll you need to know about the current weather conditions for Montreal. Weather data is updated every 10 minutes.

Weather forecast

Current Montreal weatherSince 2004, celinium.com website has provided accurate weather forecast for Montreal's island.